createdAt,value
2018-11-13T00:02:18.930Z,99.33
2018-11-13T00:04:47.893Z,98.11
2018-11-13T00:07:16.841Z,99.21
2018-11-13T00:09:45.754Z,100.00
2018-11-13T00:12:14.685Z,99.32
2018-11-13T00:14:43.592Z,98.01
2018-11-13T00:17:22.231Z,99.24
2018-11-13T00:19:54.858Z,98.89
2018-11-13T00:22:41.891Z,98.54
2018-11-13T00:25:12.134Z,99.41
2018-11-13T00:27:42.275Z,99.34
2018-11-13T00:30:14.009Z,99.56
2018-11-13T00:32:43.400Z,98.81
2018-11-13T00:35:13.089Z,99.84
2018-11-13T00:37:42.047Z,99.04
2018-11-13T00:40:11.881Z,99.76
2018-11-13T00:42:48.382Z,99.33
2018-11-13T00:45:36.990Z,99.40
2018-11-13T00:48:09.805Z,98.26
2018-11-13T00:50:38.735Z,98.27
2018-11-13T00:53:07.601Z,97.71
2018-11-13T00:58:36.886Z,98.12
2018-11-13T01:01:06.360Z,97.83
2018-11-13T01:03:35.396Z,98.80
2018-11-13T01:06:04.354Z,98.75
2018-11-13T01:08:46.214Z,98.85
2018-11-13T01:11:20.082Z,100.00
2018-11-13T01:16:54.233Z,100.00
2018-11-13T01:19:23.113Z,100.00
2018-11-13T01:21:57.676Z,100.00
2018-11-13T01:24:26.720Z,100.00
2018-11-13T01:26:55.669Z,99.76
2018-11-13T01:29:24.565Z,99.44
2018-11-13T01:31:53.550Z,99.51
2018-11-13T01:34:22.439Z,99.18
2018-11-13T01:36:51.304Z,99.11
2018-11-13T01:39:22.241Z,99.34
2018-11-13T01:41:51.179Z,98.54
2018-11-13T01:44:22.095Z,98.68
2018-11-13T01:46:51.245Z,97.72
2018-11-13T01:49:20.129Z,98.38
2018-11-13T01:51:49.112Z,98.17
2018-11-13T01:57:31.784Z,98.96
2018-11-13T02:00:12.947Z,99.19
2018-11-13T02:02:52.352Z,99.75
2018-11-13T02:05:22.332Z,100.00
2018-11-13T02:07:51.694Z,100.00
2018-11-13T02:10:20.827Z,100.00
2018-11-13T02:12:50.149Z,100.00
2018-11-13T02:15:19.771Z,100.00
2018-11-13T02:17:48.684Z,100.00
2018-11-13T02:20:19.062Z,100.00
2018-11-13T02:22:47.950Z,100.00
2018-11-13T02:25:17.858Z,100.00
2018-11-13T02:27:47.071Z,100.00
2018-11-13T02:30:17.279Z,100.00
2018-11-13T02:32:52.286Z,100.00
2018-11-13T02:35:21.349Z,100.00
2018-11-13T02:37:55.861Z,100.00
2018-11-13T02:40:24.794Z,100.00
2018-11-13T02:42:54.742Z,100.00
2018-11-13T02:45:23.627Z,100.00
2018-11-13T02:47:52.491Z,100.00
2018-11-13T02:50:22.012Z,100.00
2018-11-13T02:52:50.912Z,99.04
2018-11-13T02:55:19.872Z,99.40
2018-11-13T02:57:53.949Z,99.77
2018-11-13T03:00:23.106Z,99.20
2018-11-13T03:02:52.060Z,99.42
2018-11-13T03:05:21.842Z,98.58
2018-11-13T03:07:50.884Z,98.09
2018-11-13T03:10:20.359Z,98.79
2018-11-13T03:12:49.351Z,98.11
2018-11-13T03:15:19.427Z,98.11
2018-11-13T03:17:48.343Z,98.52
2018-11-13T03:20:18.459Z,99.57
2018-11-13T03:22:48.032Z,99.96
2018-11-13T03:25:18.197Z,99.28
2018-11-13T03:27:47.069Z,99.89
2018-11-13T03:30:19.062Z,100.00
2018-11-13T03:32:48.097Z,98.91
2018-11-13T03:35:17.021Z,99.09
2018-11-13T03:37:49.279Z,98.95
2018-11-13T03:40:18.508Z,99.66
2018-11-13T03:42:54.546Z,98.85
2018-11-13T03:45:27.156Z,98.77
2018-11-13T03:47:56.024Z,98.70
2018-11-13T03:50:24.885Z,98.82
2018-11-13T03:52:53.789Z,96.82
2018-11-13T03:55:22.672Z,98.42
2018-11-13T03:57:51.753Z,96.56
2018-11-13T04:00:21.903Z,96.87
2018-11-13T04:03:03.201Z,96.05
2018-11-13T04:05:32.094Z,96.83
2018-11-13T04:08:01.022Z,96.01
2018-11-13T04:10:34.063Z,95.78
2018-11-13T04:13:02.997Z,96.32
2018-11-13T04:15:44.762Z,96.31
2018-11-13T04:18:30.390Z,95.94
2018-11-13T04:20:59.304Z,95.82
2018-11-13T04:23:28.209Z,95.40
2018-11-13T04:25:57.190Z,95.61
2018-11-13T04:28:26.082Z,96.03
2018-11-13T04:31:02.864Z,94.83
2018-11-13T04:33:31.737Z,95.11
2018-11-13T04:36:00.624Z,94.98
2018-11-13T04:38:30.626Z,95.67
2018-11-13T04:41:07.575Z,95.36
2018-11-13T04:43:39.855Z,95.48
2018-11-13T04:49:02.298Z,95.48
2018-11-13T04:51:33.250Z,95.39
2018-11-13T04:54:26.259Z,95.01
2018-11-13T04:56:55.456Z,95.70
2018-11-13T04:59:32.104Z,95.20
2018-11-13T05:02:02.076Z,94.85
2018-11-13T05:04:36.424Z,95.25
2018-11-13T05:07:07.433Z,95.33
2018-11-13T05:09:36.417Z,95.76
2018-11-13T05:12:05.611Z,95.39
2018-11-13T05:14:34.807Z,95.32
2018-11-13T05:17:22.204Z,94.47
2018-11-13T05:19:56.129Z,94.22
2018-11-13T05:22:35.253Z,94.96
2018-11-13T05:25:21.195Z,94.60
2018-11-13T05:31:04.085Z,93.31
2018-11-13T05:33:32.966Z,94.16
2018-11-13T05:36:01.818Z,94.31
2018-11-13T05:38:30.736Z,93.95
2018-11-13T05:40:59.612Z,93.10
2018-11-13T05:43:32.300Z,93.25
2018-11-13T05:46:15.169Z,92.43
2018-11-13T05:48:53.735Z,92.53
2018-11-13T05:51:22.544Z,93.40
2018-11-13T05:54:02.594Z,93.22
2018-11-13T05:56:31.557Z,92.88
2018-11-13T05:59:05.871Z,92.22
2018-11-13T06:01:47.844Z,93.68
2018-11-13T06:10:04.636Z,93.86
2018-11-13T06:15:27.098Z,93.85
2018-11-13T06:17:59.987Z,94.33
2018-11-13T06:20:30.166Z,93.61
2018-11-13T06:23:05.327Z,93.99
2018-11-13T06:25:41.644Z,93.17
2018-11-13T06:28:11.637Z,93.56
2018-11-13T06:30:40.549Z,95.74
2018-11-13T06:33:09.723Z,92.81
2018-11-13T06:35:45.004Z,92.39
2018-11-13T06:38:20.773Z,93.49
2018-11-13T06:40:57.966Z,92.77
2018-11-13T06:43:45.442Z,92.55
2018-11-13T06:46:19.272Z,92.07
2018-11-13T06:48:49.293Z,92.00
2018-11-13T06:51:28.145Z,90.71
2018-11-13T06:54:13.724Z,90.85
2018-11-13T06:56:46.277Z,90.40
2018-11-13T06:59:16.192Z,89.72
2018-11-13T07:02:02.656Z,90.82
2018-11-13T07:04:49.631Z,90.23
2018-11-13T07:07:25.798Z,89.66
2018-11-13T07:09:55.103Z,90.28
2018-11-13T07:12:29.166Z,89.33
2018-11-13T07:14:58.043Z,88.98
2018-11-13T07:17:26.977Z,90.15
2018-11-13T07:19:55.960Z,89.75
2018-11-13T07:22:25.127Z,89.69
2018-11-13T07:24:54.075Z,90.10
2018-11-13T07:27:23.099Z,89.50
2018-11-13T07:29:57.830Z,91.01
2018-11-13T07:32:32.535Z,90.30
2018-11-13T07:35:24.187Z,90.72
2018-11-13T07:37:56.584Z,90.36
2018-11-13T07:40:36.098Z,90.38
2018-11-13T07:43:10.684Z,90.64
2018-11-13T07:45:56.727Z,90.79
2018-11-13T07:48:31.273Z,90.40
2018-11-13T07:51:23.248Z,90.31
2018-11-13T07:53:52.076Z,90.74
2018-11-13T07:56:20.926Z,90.88
2018-11-13T07:58:49.833Z,91.13
2018-11-13T08:01:18.723Z,89.91
2018-11-13T08:03:47.701Z,90.22
2018-11-13T08:06:16.829Z,90.44
2018-11-13T08:08:45.779Z,90.35
2018-11-13T08:11:14.663Z,90.52
2018-11-13T08:13:43.649Z,91.07
2018-11-13T08:16:13.633Z,91.05
2018-11-13T08:18:59.331Z,90.62
2018-11-13T08:21:47.196Z,90.21
2018-11-13T08:33:09.226Z,89.18
2018-11-13T08:35:43.741Z,89.43
2018-11-13T08:38:20.987Z,89.80
2018-11-13T08:40:57.859Z,88.97
2018-11-13T08:43:34.250Z,89.71
2018-11-13T08:49:00.661Z,89.21
2018-11-13T08:51:29.624Z,89.86
2018-11-13T08:53:58.525Z,90.15
2018-11-13T08:56:27.520Z,89.53
2018-11-13T08:58:56.598Z,89.42
2018-11-13T09:01:33.210Z,89.66
2018-11-13T09:04:07.606Z,90.08
2018-11-13T09:06:54.094Z,90.30
2018-11-13T09:09:33.265Z,88.82
2018-11-13T09:12:02.732Z,88.28
2018-11-13T09:14:32.440Z,88.54
2018-11-13T09:17:01.352Z,87.00
2018-11-13T09:19:31.491Z,87.62
2018-11-13T09:22:01.110Z,85.84
2018-11-13T09:24:33.150Z,86.53
2018-11-13T09:27:04.219Z,86.25
2018-11-13T09:29:37.794Z,85.25
2018-11-13T09:32:07.743Z,84.42
2018-11-13T09:34:37.745Z,84.22
2018-11-13T09:37:06.651Z,84.00
2018-11-13T09:39:35.546Z,83.14
2018-11-13T09:42:11.782Z,83.93
2018-11-13T09:44:47.690Z,84.28
2018-11-13T09:47:20.206Z,84.14
2018-11-13T09:49:49.077Z,84.89
2018-11-13T09:52:18.029Z,84.33
2018-11-13T09:54:47.043Z,83.86
2018-11-13T09:57:28.283Z,84.30
2018-11-13T09:59:57.909Z,84.21
2018-11-13T10:02:27.462Z,84.96
2018-11-13T10:05:03.670Z,84.50
2018-11-13T10:07:33.944Z,83.08
2018-11-13T10:10:02.896Z,82.76
2018-11-13T10:12:31.825Z,82.53
2018-11-13T10:15:00.787Z,81.48
2018-11-13T10:17:48.502Z,81.79
2018-11-13T10:20:17.800Z,81.58
2018-11-13T10:22:48.185Z,80.04
2018-11-13T10:25:17.091Z,79.39
2018-11-13T10:27:57.013Z,79.58
2018-11-13T10:30:39.251Z,80.61
2018-11-13T10:33:08.200Z,79.96
2018-11-13T10:35:37.201Z,79.34
2018-11-13T10:38:07.164Z,80.34
2018-11-13T10:40:36.154Z,79.90
2018-11-13T10:43:05.060Z,80.73
2018-11-13T10:45:37.380Z,80.83
2018-11-13T10:48:19.089Z,78.82
2018-11-13T10:50:47.993Z,77.82
2018-11-13T10:53:17.003Z,77.74
2018-11-13T10:55:45.941Z,76.44
2018-11-13T10:58:14.847Z,76.89
2018-11-13T11:00:48.913Z,77.39
2018-11-13T11:03:33.011Z,78.03
2018-11-13T11:06:01.909Z,77.43
2018-11-13T11:08:30.802Z,77.16
2018-11-13T11:10:59.737Z,76.99
2018-11-13T11:13:35.220Z,76.37
2018-11-13T11:16:05.261Z,75.99
2018-11-13T11:18:48.249Z,76.60
2018-11-13T11:21:19.229Z,75.32
2018-11-13T11:23:55.138Z,75.99
2018-11-13T11:26:24.057Z,75.40
2018-11-13T11:28:54.043Z,75.49
2018-11-13T11:31:28.535Z,75.19
2018-11-13T11:34:02.566Z,74.32
2018-11-13T11:36:34.711Z,75.32
2018-11-13T11:39:13.647Z,74.52
2018-11-13T11:42:00.488Z,73.75
2018-11-13T11:44:30.617Z,75.00
2018-11-13T11:49:55.006Z,74.87
2018-11-13T11:52:37.221Z,73.77
2018-11-13T11:55:10.848Z,74.02
2018-11-13T11:57:41.769Z,73.58
2018-11-13T12:03:06.408Z,72.79
2018-11-13T12:05:45.296Z,73.00
2018-11-13T12:08:22.173Z,71.15
2018-11-13T12:11:15.426Z,71.86
2018-11-13T12:13:49.167Z,71.07
2018-11-13T12:16:24.018Z,70.60
2018-11-13T12:19:07.551Z,70.07
2018-11-13T12:24:46.984Z,70.70
2018-11-13T12:27:23.154Z,70.44
2018-11-13T12:30:03.530Z,71.49
2018-11-13T12:32:33.202Z,70.46
2018-11-13T12:35:02.104Z,69.81
2018-11-13T12:37:31.065Z,71.08
2018-11-13T12:40:00.054Z,71.54
2018-11-13T12:42:33.373Z,71.26
2018-11-13T12:45:02.412Z,71.24
2018-11-13T12:50:41.228Z,68.03
2018-11-13T12:53:14.728Z,68.74
2018-11-13T12:55:45.745Z,68.34
2018-11-13T12:58:28.080Z,68.04
2018-11-13T13:00:57.072Z,68.82
2018-11-13T13:03:32.954Z,68.99
2018-11-13T13:06:01.868Z,68.69
2018-11-13T13:08:37.752Z,68.93
2018-11-13T13:11:17.721Z,69.16
2018-11-13T13:13:54.242Z,69.32
2018-11-13T13:16:27.234Z,69.55
2018-11-13T13:21:57.174Z,69.01
2018-11-13T13:24:32.050Z,69.12
2018-11-13T13:29:55.000Z,69.78
2018-11-13T13:32:24.074Z,68.73
2018-11-13T13:34:52.984Z,69.17
2018-11-13T13:37:21.943Z,69.45
2018-11-13T13:39:50.814Z,69.15
2018-11-13T13:42:19.807Z,69.17
2018-11-13T13:44:48.667Z,68.58
2018-11-13T13:47:17.546Z,70.11
2018-11-13T13:49:46.673Z,69.52
2018-11-13T13:52:19.271Z,69.23
2018-11-13T13:54:59.855Z,69.38
2018-11-13T13:57:30.839Z,69.91
2018-11-13T14:00:11.684Z,70.28
2018-11-13T14:02:46.337Z,69.68
2018-11-13T14:05:15.256Z,69.96
2018-11-13T14:07:44.283Z,70.03
2018-11-13T14:10:13.273Z,69.43
2018-11-13T14:12:44.431Z,70.01
2018-11-13T14:15:13.764Z,70.23
2018-11-13T14:17:42.779Z,69.91
2018-11-13T14:20:28.533Z,70.04
2018-11-13T14:23:16.252Z,69.95
2018-11-13T14:25:53.734Z,69.86
2018-11-13T14:28:33.378Z,70.72
2018-11-13T14:31:08.137Z,70.00
2018-11-13T14:33:37.066Z,71.89
2018-11-13T14:36:06.933Z,72.96
2018-11-13T14:38:39.197Z,70.52
2018-11-13T14:41:31.323Z,71.15
2018-11-13T14:44:05.111Z,68.75
2018-11-13T14:46:46.350Z,69.73
2018-11-13T14:49:25.506Z,69.48
2018-11-13T14:52:01.240Z,70.53
2018-11-13T14:54:33.439Z,70.63
2018-11-13T14:57:04.491Z,71.20
2018-11-13T14:59:45.606Z,71.26
2018-11-13T15:02:15.619Z,71.27
2018-11-13T15:04:45.557Z,71.67
2018-11-13T15:07:34.927Z,72.02
2018-11-13T15:10:06.495Z,71.93
2018-11-13T15:15:35.105Z,72.70
2018-11-13T15:18:05.582Z,72.64
2018-11-13T15:20:36.720Z,72.41
2018-11-13T15:23:22.922Z,73.46
2018-11-13T15:25:56.680Z,73.76
2018-11-13T15:28:25.548Z,73.05
2018-11-13T15:30:54.516Z,73.88
2018-11-13T15:33:24.440Z,74.21
2018-11-13T15:35:53.332Z,73.43
2018-11-13T15:38:22.264Z,74.27
2018-11-13T15:40:51.176Z,74.46
2018-11-13T15:43:20.056Z,73.90
2018-11-13T15:45:48.932Z,74.48
2018-11-13T15:48:18.916Z,74.87
2018-11-13T15:50:47.769Z,74.25
2018-11-13T15:53:16.791Z,74.82
2018-11-13T15:55:49.111Z,75.12
2018-11-13T15:58:18.082Z,75.64
2018-11-13T16:00:47.030Z,75.60
2018-11-13T16:03:32.530Z,75.39
2018-11-13T16:06:01.421Z,75.79
2018-11-13T16:08:30.299Z,76.16
2018-11-13T16:11:14.670Z,75.67
2018-11-13T16:13:49.569Z,76.69
2018-11-13T16:16:18.469Z,76.67
2018-11-13T16:18:47.532Z,76.61
2018-11-13T16:21:16.486Z,76.84
2018-11-13T16:26:54.835Z,76.57
2018-11-13T16:29:23.878Z,76.39
2018-11-13T16:31:52.859Z,77.34
2018-11-13T16:34:21.829Z,76.80
2018-11-13T16:36:50.906Z,76.94
2018-11-13T16:39:19.750Z,76.99
2018-11-13T16:41:51.819Z,77.73
2018-11-13T16:44:20.688Z,76.87
2018-11-13T16:46:49.602Z,77.94
2018-11-13T16:49:18.527Z,78.62
2018-11-13T16:51:59.826Z,78.99
2018-11-13T16:54:45.433Z,78.05
2018-11-13T16:57:28.068Z,78.21
2018-11-13T17:00:10.674Z,78.88
2018-11-13T17:02:40.611Z,79.99
2018-11-13T17:05:13.121Z,78.31
2018-11-13T17:07:50.485Z,77.83
2018-11-13T17:10:20.833Z,78.08
2018-11-13T17:12:51.441Z,79.19
2018-11-13T17:15:31.810Z,79.40
2018-11-13T17:18:01.806Z,79.30
2018-11-13T17:20:34.522Z,79.60
2018-11-13T17:23:03.442Z,79.40
2018-11-13T17:25:39.087Z,81.06
2018-11-13T17:28:13.602Z,80.10
2018-11-13T17:30:43.625Z,80.67
2018-11-13T17:33:23.244Z,81.14
2018-11-13T17:35:52.289Z,80.71
2018-11-13T17:38:37.467Z,80.91
2018-11-13T17:41:06.580Z,81.86
2018-11-13T17:43:35.488Z,81.60
2018-11-13T17:46:06.496Z,81.57
2018-11-13T17:48:46.228Z,81.78
2018-11-13T17:51:22.139Z,82.33
2018-11-13T17:53:51.046Z,83.18
2018-11-13T17:56:41.929Z,82.90
2018-11-13T17:59:16.918Z,83.46
2018-11-13T18:01:45.963Z,83.15
2018-11-13T18:04:19.721Z,83.13
2018-11-13T18:06:59.291Z,83.87
2018-11-13T18:09:28.342Z,84.08
2018-11-13T18:12:04.840Z,83.59
2018-11-13T18:14:44.530Z,83.67
2018-11-13T18:20:16.553Z,82.89
2018-11-13T18:22:45.901Z,83.00
2018-11-13T18:25:26.771Z,84.34
2018-11-13T18:27:58.945Z,83.63
2018-11-13T18:30:30.846Z,84.31
2018-11-13T18:33:07.445Z,84.29
2018-11-13T18:35:46.912Z,83.79
2018-11-13T18:38:16.550Z,84.76
2018-11-13T18:40:59.363Z,84.23
2018-11-13T18:43:28.519Z,84.35
2018-11-13T18:45:57.440Z,84.72
2018-11-13T18:48:28.473Z,84.06
2018-11-13T18:50:57.458Z,84.93
2018-11-13T18:53:26.506Z,85.71
2018-11-13T18:56:00.425Z,84.69
2018-11-13T18:58:33.356Z,85.28
2018-11-13T19:01:16.166Z,84.67
2018-11-13T19:03:45.078Z,84.62
2018-11-13T19:06:15.169Z,85.45
2018-11-13T19:09:01.888Z,84.89
2018-11-13T19:11:32.123Z,85.18
2018-11-13T19:14:02.122Z,85.72
2018-11-13T19:16:43.282Z,85.18
2018-11-13T19:19:29.097Z,84.95
2018-11-13T19:21:58.887Z,85.61
2018-11-13T19:24:28.015Z,85.70
2018-11-13T19:27:01.235Z,86.14
2018-11-13T19:29:32.292Z,85.98
2018-11-13T19:32:02.140Z,85.99
2018-11-13T19:34:34.212Z,85.72
2018-11-13T19:37:05.365Z,87.08
2018-11-13T19:39:34.339Z,86.70
2018-11-13T19:42:17.049Z,85.96
2018-11-13T19:44:58.234Z,86.78
2018-11-13T19:47:27.245Z,86.37
2018-11-13T19:49:57.169Z,87.08
2018-11-13T19:52:27.467Z,87.00
2018-11-13T19:54:56.612Z,86.90
2018-11-13T19:57:28.709Z,87.98
2018-11-13T20:00:05.399Z,88.39
2018-11-13T20:02:40.404Z,87.50
2018-11-13T20:05:14.493Z,88.11
2018-11-13T20:07:45.496Z,88.25
2018-11-13T20:10:18.872Z,87.26
2018-11-13T20:12:50.094Z,87.32
2018-11-13T20:15:19.593Z,87.91
2018-11-13T20:17:53.738Z,87.28
2018-11-13T20:20:26.050Z,87.17
2018-11-13T20:23:00.023Z,87.43
2018-11-13T20:28:22.273Z,87.56
2018-11-13T20:30:51.199Z,87.48
2018-11-13T20:33:22.220Z,86.99
2018-11-13T20:35:52.171Z,88.39
2018-11-13T20:38:32.556Z,87.24
2018-11-13T20:41:03.604Z,87.59
2018-11-13T20:43:38.317Z,86.62
2018-11-13T20:46:09.267Z,87.42
2018-11-13T20:48:41.508Z,87.21
2018-11-13T20:51:12.456Z,87.74
2018-11-13T20:53:44.138Z,87.57
2018-11-13T20:56:18.782Z,87.94
2018-11-13T20:58:48.293Z,88.97
2018-11-13T21:01:18.203Z,89.34
2018-11-13T21:03:49.208Z,88.42
2018-11-13T21:06:19.479Z,89.92
2018-11-13T21:08:50.785Z,89.63
2018-11-13T21:11:30.020Z,89.14
2018-11-13T21:14:02.922Z,88.85
2018-11-13T21:16:32.464Z,88.78
2018-11-13T21:19:04.875Z,89.46
2018-11-13T21:21:35.735Z,89.81
2018-11-13T21:24:07.438Z,88.87
2018-11-13T21:26:36.689Z,89.19
2018-11-13T21:29:10.630Z,89.88
2018-11-13T21:31:39.662Z,89.98
2018-11-13T21:34:14.530Z,91.14
2018-11-13T21:36:54.072Z,91.48
2018-11-13T21:39:26.592Z,91.09
2018-11-13T21:41:55.586Z,91.30
2018-11-13T21:44:24.592Z,92.48
2018-11-13T21:46:53.826Z,92.30
2018-11-13T21:49:22.838Z,91.78
2018-11-13T21:51:51.862Z,92.79
2018-11-13T21:54:21.836Z,92.11
2018-11-13T21:56:50.973Z,92.00
2018-11-13T21:59:20.896Z,91.90
2018-11-13T22:01:50.016Z,92.99
2018-11-13T22:04:27.158Z,91.55
2018-11-13T22:07:00.945Z,92.33
2018-11-13T22:09:43.534Z,91.27
2018-11-13T22:15:09.349Z,92.32
2018-11-13T22:17:42.240Z,92.20
2018-11-13T22:20:12.722Z,91.35
2018-11-13T22:22:52.691Z,91.72
2018-11-13T22:25:24.009Z,92.07
2018-11-13T22:28:07.011Z,91.49
2018-11-13T22:30:35.858Z,91.09
2018-11-13T22:33:05.031Z,91.10
2018-11-13T22:35:46.255Z,91.59
2018-11-13T22:38:21.235Z,92.04
2018-11-13T22:40:53.579Z,92.07
2018-11-13T22:43:23.433Z,91.04
2018-11-13T22:45:58.927Z,92.02
2018-11-13T22:48:31.461Z,91.74
2018-11-13T22:51:03.796Z,90.91
2018-11-13T22:53:45.698Z,91.62
2018-11-13T22:56:16.704Z,92.62
2018-11-13T22:58:58.232Z,92.33
2018-11-13T23:01:40.044Z,93.15
2018-11-13T23:04:09.017Z,93.33
2018-11-13T23:06:54.883Z,92.37
2018-11-13T23:09:34.299Z,93.06
2018-11-13T23:12:10.499Z,92.58
2018-11-13T23:14:45.402Z,92.93
2018-11-13T23:17:14.500Z,92.15
2018-11-13T23:19:43.482Z,92.23
2018-11-13T23:22:12.571Z,92.83
2018-11-13T23:24:41.545Z,92.39
2018-11-13T23:27:15.586Z,92.51
2018-11-13T23:29:45.607Z,92.14
2018-11-13T23:32:14.569Z,92.50
2018-11-13T23:34:43.607Z,92.36
2018-11-13T23:37:15.842Z,93.50
2018-11-13T23:39:44.902Z,92.65
2018-11-13T23:42:13.826Z,93.13
2018-11-13T23:44:49.330Z,92.75
2018-11-13T23:47:23.055Z,93.82
2018-11-13T23:49:52.021Z,94.40
2018-11-13T23:52:33.606Z,94.64
2018-11-13T23:55:06.498Z,94.56
2018-11-13T23:57:48.234Z,95.34
